MDPP/POP METAR and TAF weather

Enter ICAO airport designator
Station Type Date Time Source
MDPP METAR 2019/04/20 22:00 UTC NOAA

MDPP 202200Z 09010KT 9999 FEW024 29/22 Q1015


Station Type Date Time Source
MDPP Decoded METAR 2019/04/20 22:00 UTC NOAA

Puerto Plata International, Dominican Republic (MDPP) 19-45N 070-33W
Apr 20, 2019 - 06:00 PM EDT / 2019.04.20 2200 UTC
Wind: from the E (090 degrees) at 12 MPH (10 KT):0
Visibility: greater than 7 mile(s):0
Sky conditions: mostly clear
Temperature: 84 F (29 C)
Dew Point: 71 F (22 C)
Relative Humidity: 65%
Pressure (altimeter): 29.97 in. Hg (1015 hPa)
ob: MDPP 202200Z 09010KT 9999 FEW024 29/22 Q1015
cycle: 22

Station Type Date Time Source
MDPP TAF 2019/04/20 18:33 UTC NOAA

TAF MDPP 201600Z 2018/2118 09015KT 9999 SCT022 PROB30 2022/2104 8000 -SH BKN016
BECMG 2102/2104 00000KT

Example: see airport list